sensor_id;sensor_type;location;lat;lon;timestamp;temperature;humidity
18506;DHT22;9382;53.242;10.438;2022-11-20T00:01:06;1.60;99.90
18506;DHT22;9382;53.242;10.438;2022-11-20T00:03:33;1.60;99.90
18506;DHT22;9382;53.242;10.438;2022-11-20T00:06:01;1.70;99.90
18506;DHT22;9382;53.242;10.438;2022-11-20T00:08:28;1.60;99.90
18506;DHT22;9382;53.242;10.438;2022-11-20T00:10:55;1.60;99.90
18506;DHT22;9382;53.242;10.438;2022-11-20T00:13:22;1.60;99.90
18506;DHT22;9382;53.242;10.438;2022-11-20T00:15:56;1.60;99.90
18506;DHT22;9382;53.242;10.438;2022-11-20T00:18:23;1.50;99.90
18506;DHT22;9382;53.242;10.438;2022-11-20T00:20:50;1.50;99.90
18506;DHT22;9382;53.242;10.438;2022-11-20T00:23:18;1.50;99.90
18506;DHT22;9382;53.242;10.438;2022-11-20T00:25:45;1.50;99.90
18506;DHT22;9382;53.242;10.438;2022-11-20T00:28:12;1.50;99.90
18506;DHT22;9382;53.242;10.438;2022-11-20T00:30:38;1.40;99.90
18506;DHT22;9382;53.242;10.438;2022-11-20T00:33:05;1.40;99.90
18506;DHT22;9382;53.242;10.438;2022-11-20T00:35:32;1.50;99.90
18506;DHT22;9382;53.242;10.438;2022-11-20T00:37:58;1.40;99.90
18506;DHT22;9382;53.242;10.438;2022-11-20T00:40:26;1.40;99.90
18506;DHT22;9382;53.242;10.438;2022-11-20T00:42:53;1.40;99.90
18506;DHT22;9382;53.242;10.438;2022-11-20T00:45:20;1.40;99.90
18506;DHT22;9382;53.242;10.438;2022-11-20T00:47:47;1.40;99.90
18506;DHT22;9382;53.242;10.438;2022-11-20T00:50:13;1.40;99.90
18506;DHT22;9382;53.242;10.438;2022-11-20T00:52:40;1.40;99.90
18506;DHT22;9382;53.242;10.438;2022-11-20T00:55:07;1.40;99.90
18506;DHT22;9382;53.242;10.438;2022-11-20T00:57:35;1.40;99.90
18506;DHT22;9382;53.242;10.438;2022-11-20T01:00:03;1.30;99.90
18506;DHT22;9382;53.242;10.438;2022-11-20T01:02:30;1.30;99.90
18506;DHT22;9382;53.242;10.438;2022-11-20T01:04:56;1.30;99.90
18506;DHT22;9382;53.242;10.438;2022-11-20T01:07:23;1.40;99.90
18506;DHT22;9382;53.242;10.438;2022-11-20T01:09:50;1.30;99.90
18506;DHT22;9382;53.242;10.438;2022-11-20T01:12:16;1.40;99.90
18506;DHT22;9382;53.242;10.438;2022-11-20T01:14:44;1.30;99.90
18506;DHT22;9382;53.242;10.438;2022-11-20T01:17:11;1.40;99.90
18506;DHT22;9382;53.242;10.438;2022-11-20T01:19:38;1.40;99.90
18506;DHT22;9382;53.242;10.438;2022-11-20T01:22:05;1.40;99.90
18506;DHT22;9382;53.242;10.438;2022-11-20T01:24:32;1.40;99.90
18506;DHT22;9382;53.242;10.438;2022-11-20T01:26:58;1.40;99.90
18506;DHT22;9382;53.242;10.438;2022-11-20T01:29:25;1.30;99.90
18506;DHT22;9382;53.242;10.438;2022-11-20T01:31:53;1.30;99.90
18506;DHT22;9382;53.242;10.438;2022-11-20T01:34:21;1.30;99.90
18506;DHT22;9382;53.242;10.438;2022-11-20T01:36:48;1.30;99.90
18506;DHT22;9382;53.242;10.438;2022-11-20T01:39:17;1.30;99.90
18506;DHT22;9382;53.242;10.438;2022-11-20T01:41:45;1.30;99.90
18506;DHT22;9382;53.242;10.438;2022-11-20T01:44:49;1.30;99.90
18506;DHT22;9382;53.242;10.438;2022-11-20T01:47:21;1.30;99.90
18506;DHT22;9382;53.242;10.438;2022-11-20T01:49:52;1.20;99.90
18506;DHT22;9382;53.242;10.438;2022-11-20T01:52:23;1.20;99.90
18506;DHT22;9382;53.242;10.438;2022-11-20T01:54:55;1.10;99.90
18506;DHT22;9382;53.242;10.438;2022-11-20T01:57:24;1.10;99.90
18506;DHT22;9382;53.242;10.438;2022-11-20T01:59:56;1.00;99.90
18506;DHT22;9382;53.242;10.438;2022-11-20T02:02:25;1.00;99.90
18506;DHT22;9382;53.242;10.438;2022-11-20T02:04:54;0.90;99.90
18506;DHT22;9382;53.242;10.438;2022-11-20T02:07:23;0.90;99.90
18506;DHT22;9382;53.242;10.438;2022-11-20T02:09:51;0.90;99.90
18506;DHT22;9382;53.242;10.438;2022-11-20T02:12:18;1.00;99.90
18506;DHT22;9382;53.242;10.438;2022-11-20T02:14:58;1.00;99.90
18506;DHT22;9382;53.242;10.438;2022-11-20T02:17:27;0.90;99.90
18506;DHT22;9382;53.242;10.438;2022-11-20T02:19:54;0.80;99.90
18506;DHT22;9382;53.242;10.438;2022-11-20T02:22:25;0.80;99.90
18506;DHT22;9382;53.242;10.438;2022-11-20T02:24:54;0.70;99.90
18506;DHT22;9382;53.242;10.438;2022-11-20T02:27:22;0.60;99.90
18506;DHT22;9382;53.242;10.438;2022-11-20T02:29:52;0.60;99.90
18506;DHT22;9382;53.242;10.438;2022-11-20T02:32:20;0.70;99.90
18506;DHT22;9382;53.242;10.438;2022-11-20T02:34:47;0.50;99.90
18506;DHT22;9382;53.242;10.438;2022-11-20T02:37:14;0.50;99.90
18506;DHT22;9382;53.242;10.438;2022-11-20T02:39:41;0.40;99.90
18506;DHT22;9382;53.242;10.438;2022-11-20T02:42:10;0.30;99.90
18506;DHT22;9382;53.242;10.438;2022-11-20T02:44:40;0.30;99.90
18506;DHT22;9382;53.242;10.438;2022-11-20T02:47:07;0.30;99.90
18506;DHT22;9382;53.242;10.438;2022-11-20T02:49:34;0.30;99.90
18506;DHT22;9382;53.242;10.438;2022-11-20T02:52:01;0.20;99.90
18506;DHT22;9382;53.242;10.438;2022-11-20T02:54:27;0.20;99.90
18506;DHT22;9382;53.242;10.438;2022-11-20T02:56:54;0.10;99.90
18506;DHT22;9382;53.242;10.438;2022-11-20T02:59:22;0.00;99.90
18506;DHT22;9382;53.242;10.438;2022-11-20T03:01:49;0.00;99.90
18506;DHT22;9382;53.242;10.438;2022-11-20T03:04:16;0.00;99.90
18506;DHT22;9382;53.242;10.438;2022-11-20T03:06:43;0.00;99.90
18506;DHT22;9382;53.242;10.438;2022-11-20T03:09:09;0.00;99.90
18506;DHT22;9382;53.242;10.438;2022-11-20T03:11:36;0.10;99.90
18506;DHT22;9382;53.242;10.438;2022-11-20T03:14:03;0.10;99.90
18506;DHT22;9382;53.242;10.438;2022-11-20T03:16:32;0.10;99.90
18506;DHT22;9382;53.242;10.438;2022-11-20T03:18:59;0.20;99.90
18506;DHT22;9382;53.242;10.438;2022-11-20T03:21:26;0.20;99.90
18506;DHT22;9382;53.242;10.438;2022-11-20T03:23:53;0.30;99.90
18506;DHT22;9382;53.242;10.438;2022-11-20T03:26:22;0.30;99.90
18506;DHT22;9382;53.242;10.438;2022-11-20T03:28:51;0.40;99.90
18506;DHT22;9382;53.242;10.438;2022-11-20T03:31:20;0.40;99.90
18506;DHT22;9382;53.242;10.438;2022-11-20T03:33:48;0.40;99.90
18506;DHT22;9382;53.242;10.438;2022-11-20T03:36:17;0.40;99.90
18506;DHT22;9382;53.242;10.438;2022-11-20T03:38:45;0.50;99.90
18506;DHT22;9382;53.242;10.438;2022-11-20T03:41:14;0.50;99.90
18506;DHT22;9382;53.242;10.438;2022-11-20T03:43:41;0.60;99.90
18506;DHT22;9382;53.242;10.438;2022-11-20T03:46:08;0.50;99.90
18506;DHT22;9382;53.242;10.438;2022-11-20T03:48:34;0.60;99.90
18506;DHT22;9382;53.242;10.438;2022-11-20T03:51:10;0.70;99.90
18506;DHT22;9382;53.242;10.438;2022-11-20T03:53:37;0.70;99.90
18506;DHT22;9382;53.242;10.438;2022-11-20T03:56:04;0.70;99.90
18506;DHT22;9382;53.242;10.438;2022-11-20T03:58:32;0.70;99.90
18506;DHT22;9382;53.242;10.438;2022-11-20T04:01:04;0.70;99.90
18506;DHT22;9382;53.242;10.438;2022-11-20T04:03:31;0.80;99.90
18506;DHT22;9382;53.242;10.438;2022-11-20T04:06:02;0.70;99.90
18506;DHT22;9382;53.242;10.438;2022-11-20T04:08:30;0.70;99.90
18506;DHT22;9382;53.242;10.438;2022-11-20T04:11:08;0.70;99.90
18506;DHT22;9382;53.242;10.438;2022-11-20T04:13:34;0.70;99.90
18506;DHT22;9382;53.242;10.438;2022-11-20T04:16:01;0.70;99.90
18506;DHT22;9382;53.242;10.438;2022-11-20T04:18:28;0.70;99.90
18506;DHT22;9382;53.242;10.438;2022-11-20T04:20:56;0.70;99.90
18506;DHT22;9382;53.242;10.438;2022-11-20T04:23:26;0.80;99.90
18506;DHT22;9382;53.242;10.438;2022-11-20T04:25:54;0.80;99.90
18506;DHT22;9382;53.242;10.438;2022-11-20T04:28:21;0.80;99.90
18506;DHT22;9382;53.242;10.438;2022-11-20T04:30:47;0.80;99.90
18506;DHT22;9382;53.242;10.438;2022-11-20T04:33:14;0.80;99.90
18506;DHT22;9382;53.242;10.438;2022-11-20T04:35:41;0.80;99.90
18506;DHT22;9382;53.242;10.438;2022-11-20T04:38:07;0.80;99.90
18506;DHT22;9382;53.242;10.438;2022-11-20T04:40:34;0.90;99.90
18506;DHT22;9382;53.242;10.438;2022-11-20T04:43:02;0.90;99.90
18506;DHT22;9382;53.242;10.438;2022-11-20T04:45:29;0.90;99.90
18506;DHT22;9382;53.242;10.438;2022-11-20T04:47:58;0.90;99.90
18506;DHT22;9382;53.242;10.438;2022-11-20T04:50:25;0.90;99.90
18506;DHT22;9382;53.242;10.438;2022-11-20T04:52:52;0.90;99.90
18506;DHT22;9382;53.242;10.438;2022-11-20T04:55:18;0.80;99.90
18506;DHT22;9382;53.242;10.438;2022-11-20T04:57:45;0.80;99.90
18506;DHT22;9382;53.242;10.438;2022-11-20T05:00:17;0.80;99.90
18506;DHT22;9382;53.242;10.438;2022-11-20T05:02:44;0.80;99.90
18506;DHT22;9382;53.242;10.438;2022-11-20T05:05:11;0.90;99.90
18506;DHT22;9382;53.242;10.438;2022-11-20T05:07:38;0.90;99.90
18506;DHT22;9382;53.242;10.438;2022-11-20T05:10:05;0.80;99.90
18506;DHT22;9382;53.242;10.438;2022-11-20T05:12:32;0.80;99.90
18506;DHT22;9382;53.242;10.438;2022-11-20T05:14:59;0.90;99.90
18506;DHT22;9382;53.242;10.438;2022-11-20T05:17:27;0.90;99.90
18506;DHT22;9382;53.242;10.438;2022-11-20T05:19:54;0.90;99.90
18506;DHT22;9382;53.242;10.438;2022-11-20T05:22:21;0.90;99.90
18506;DHT22;9382;53.242;10.438;2022-11-20T05:24:47;0.90;99.90
18506;DHT22;9382;53.242;10.438;2022-11-20T05:27:14;0.90;99.90
18506;DHT22;9382;53.242;10.438;2022-11-20T05:29:41;0.90;99.90
18506;DHT22;9382;53.242;10.438;2022-11-20T05:32:08;0.80;99.90
18506;DHT22;9382;53.242;10.438;2022-11-20T05:34:36;0.90;99.90
18506;DHT22;9382;53.242;10.438;2022-11-20T05:37:03;0.80;99.90
18506;DHT22;9382;53.242;10.438;2022-11-20T05:39:29;0.80;99.90
18506;DHT22;9382;53.242;10.438;2022-11-20T05:41:56;0.80;99.90
18506;DHT22;9382;53.242;10.438;2022-11-20T05:44:37;0.80;99.90
18506;DHT22;9382;53.242;10.438;2022-11-20T05:47:04;0.90;99.90
18506;DHT22;9382;53.242;10.438;2022-11-20T05:49:31;0.90;99.90
18506;DHT22;9382;53.242;10.438;2022-11-20T05:51:59;1.00;99.90
18506;DHT22;9382;53.242;10.438;2022-11-20T05:54:25;1.00;99.90
18506;DHT22;9382;53.242;10.438;2022-11-20T05:56:52;1.00;99.90
18506;DHT22;9382;53.242;10.438;2022-11-20T05:59:19;0.90;99.90
18506;DHT22;9382;53.242;10.438;2022-11-20T06:01:46;0.90;99.90
18506;DHT22;9382;53.242;10.438;2022-11-20T06:04:12;0.90;99.90
18506;DHT22;9382;53.242;10.438;2022-11-20T06:06:39;0.90;99.90
18506;DHT22;9382;53.242;10.438;2022-11-20T06:09:07;1.00;99.90
18506;DHT22;9382;53.242;10.438;2022-11-20T06:11:34;0.90;99.90
18506;DHT22;9382;53.242;10.438;2022-11-20T06:14:01;0.90;99.90
18506;DHT22;9382;53.242;10.438;2022-11-20T06:16:28;1.00;99.90
18506;DHT22;9382;53.242;10.438;2022-11-20T06:18:54;1.00;99.90
18506;DHT22;9382;53.242;10.438;2022-11-20T06:21:22;0.90;99.90
18506;DHT22;9382;53.242;10.438;2022-11-20T06:23:50;0.90;99.90
18506;DHT22;9382;53.242;10.438;2022-11-20T06:26:20;0.90;99.90
18506;DHT22;9382;53.242;10.438;2022-11-20T06:28:47;0.90;99.90
18506;DHT22;9382;53.242;10.438;2022-11-20T06:31:16;0.90;99.90
18506;DHT22;9382;53.242;10.438;2022-11-20T06:33:43;0.90;99.90
18506;DHT22;9382;53.242;10.438;2022-11-20T06:36:11;0.80;99.90
18506;DHT22;9382;53.242;10.438;2022-11-20T06:38:38;0.90;99.90
18506;DHT22;9382;53.242;10.438;2022-11-20T06:41:06;0.90;99.90
18506;DHT22;9382;53.242;10.438;2022-11-20T06:43:34;0.90;99.90
18506;DHT22;9382;53.242;10.438;2022-11-20T06:46:01;0.80;99.90
18506;DHT22;9382;53.242;10.438;2022-11-20T06:48:28;0.90;99.90
18506;DHT22;9382;53.242;10.438;2022-11-20T06:50:55;0.80;99.90
18506;DHT22;9382;53.242;10.438;2022-11-20T06:53:22;0.80;99.90
18506;DHT22;9382;53.242;10.438;2022-11-20T06:55:50;0.80;99.90
18506;DHT22;9382;53.242;10.438;2022-11-20T06:58:17;0.80;99.90
18506;DHT22;9382;53.242;10.438;2022-11-20T07:00:46;0.80;99.90
18506;DHT22;9382;53.242;10.438;2022-11-20T07:03:13;0.80;99.90
18506;DHT22;9382;53.242;10.438;2022-11-20T07:05:40;0.70;99.90
18506;DHT22;9382;53.242;10.438;2022-11-20T07:08:07;0.80;99.90
18506;DHT22;9382;53.242;10.438;2022-11-20T07:10:34;0.80;99.90
18506;DHT22;9382;53.242;10.438;2022-11-20T07:13:01;0.80;99.90
18506;DHT22;9382;53.242;10.438;2022-11-20T07:15:28;0.90;99.90
18506;DHT22;9382;53.242;10.438;2022-11-20T07:17:58;0.90;99.90
18506;DHT22;9382;53.242;10.438;2022-11-20T07:20:25;0.80;99.90
18506;DHT22;9382;53.242;10.438;2022-11-20T07:22:53;0.80;99.90
18506;DHT22;9382;53.242;10.438;2022-11-20T07:25:21;0.90;99.90
18506;DHT22;9382;53.242;10.438;2022-11-20T07:27:47;0.90;99.90
18506;DHT22;9382;53.242;10.438;2022-11-20T07:30:15;0.90;99.90
18506;DHT22;9382;53.242;10.438;2022-11-20T07:32:41;0.90;99.90
18506;DHT22;9382;53.242;10.438;2022-11-20T07:35:09;1.00;99.90
18506;DHT22;9382;53.242;10.438;2022-11-20T07:37:36;0.90;99.90
18506;DHT22;9382;53.242;10.438;2022-11-20T07:40:04;0.90;99.90
18506;DHT22;9382;53.242;10.438;2022-11-20T07:42:31;0.90;99.90
18506;DHT22;9382;53.242;10.438;2022-11-20T07:44:57;1.00;99.90
18506;DHT22;9382;53.242;10.438;2022-11-20T07:47:24;1.00;99.90
18506;DHT22;9382;53.242;10.438;2022-11-20T07:49:51;1.00;99.90
18506;DHT22;9382;53.242;10.438;2022-11-20T07:52:19;1.00;99.90
18506;DHT22;9382;53.242;10.438;2022-11-20T07:54:46;1.00;99.90
18506;DHT22;9382;53.242;10.438;2022-11-20T07:57:12;1.10;99.90
18506;DHT22;9382;53.242;10.438;2022-11-20T07:59:39;1.10;99.90
18506;DHT22;9382;53.242;10.438;2022-11-20T08:02:09;1.10;99.90
18506;DHT22;9382;53.242;10.438;2022-11-20T08:04:36;1.20;99.90
18506;DHT22;9382;53.242;10.438;2022-11-20T08:07:02;1.30;99.90
18506;DHT22;9382;53.242;10.438;2022-11-20T08:09:30;1.30;99.90
18506;DHT22;9382;53.242;10.438;2022-11-20T08:11:58;1.40;99.90
18506;DHT22;9382;53.242;10.438;2022-11-20T08:14:42;1.50;99.90
18506;DHT22;9382;53.242;10.438;2022-11-20T08:17:08;1.60;99.90
18506;DHT22;9382;53.242;10.438;2022-11-20T08:19:36;1.70;99.90
18506;DHT22;9382;53.242;10.438;2022-11-20T08:22:02;1.70;99.90
18506;DHT22;9382;53.242;10.438;2022-11-20T08:24:30;1.70;99.90
18506;DHT22;9382;53.242;10.438;2022-11-20T08:26:57;1.80;99.90
18506;DHT22;9382;53.242;10.438;2022-11-20T08:29:24;1.90;99.90
18506;DHT22;9382;53.242;10.438;2022-11-20T08:31:51;2.00;99.90
18506;DHT22;9382;53.242;10.438;2022-11-20T08:34:17;2.10;99.90
18506;DHT22;9382;53.242;10.438;2022-11-20T08:36:44;2.10;99.90
18506;DHT22;9382;53.242;10.438;2022-11-20T08:39:12;2.30;99.90
18506;DHT22;9382;53.242;10.438;2022-11-20T08:41:40;2.50;99.90
18506;DHT22;9382;53.242;10.438;2022-11-20T08:44:07;2.50;99.90
18506;DHT22;9382;53.242;10.438;2022-11-20T08:46:35;2.70;99.90
18506;DHT22;9382;53.242;10.438;2022-11-20T08:49:03;2.70;99.90
18506;DHT22;9382;53.242;10.438;2022-11-20T08:51:30;2.70;99.90
18506;DHT22;9382;53.242;10.438;2022-11-20T08:53:57;2.60;99.90
18506;DHT22;9382;53.242;10.438;2022-11-20T08:56:24;2.60;99.90
18506;DHT22;9382;53.242;10.438;2022-11-20T08:58:52;2.50;99.90
18506;DHT22;9382;53.242;10.438;2022-11-20T09:01:19;2.50;99.90
18506;DHT22;9382;53.242;10.438;2022-11-20T09:03:46;2.60;99.90
18506;DHT22;9382;53.242;10.438;2022-11-20T09:06:13;2.60;99.90
18506;DHT22;9382;53.242;10.438;2022-11-20T09:08:40;2.60;99.90
18506;DHT22;9382;53.242;10.438;2022-11-20T09:11:07;2.80;99.90
18506;DHT22;9382;53.242;10.438;2022-11-20T09:13:35;3.10;99.90
18506;DHT22;9382;53.242;10.438;2022-11-20T09:16:06;3.50;99.90
18506;DHT22;9382;53.242;10.438;2022-11-20T09:18:34;3.80;99.90
18506;DHT22;9382;53.242;10.438;2022-11-20T09:21:03;3.90;99.90
18506;DHT22;9382;53.242;10.438;2022-11-20T09:23:32;3.80;99.90
18506;DHT22;9382;53.242;10.438;2022-11-20T09:26:02;3.80;99.90
18506;DHT22;9382;53.242;10.438;2022-11-20T09:28:29;3.70;99.90
18506;DHT22;9382;53.242;10.438;2022-11-20T09:30:56;3.70;99.90
18506;DHT22;9382;53.242;10.438;2022-11-20T09:33:24;3.60;99.90
18506;DHT22;9382;53.242;10.438;2022-11-20T09:35:51;3.60;99.90
18506;DHT22;9382;53.242;10.438;2022-11-20T09:38:18;3.70;99.90
18506;DHT22;9382;53.242;10.438;2022-11-20T09:40:49;3.70;99.90
18506;DHT22;9382;53.242;10.438;2022-11-20T09:43:21;3.40;99.90
18506;DHT22;9382;53.242;10.438;2022-11-20T09:46:00;3.20;99.90
18506;DHT22;9382;53.242;10.438;2022-11-20T09:48:45;3.10;99.90
18506;DHT22;9382;53.242;10.438;2022-11-20T09:51:21;3.00;99.90
18506;DHT22;9382;53.242;10.438;2022-11-20T09:54:06;3.00;99.90
18506;DHT22;9382;53.242;10.438;2022-11-20T09:56:37;2.80;99.90
18506;DHT22;9382;53.242;10.438;2022-11-20T09:59:06;2.80;99.90
18506;DHT22;9382;53.242;10.438;2022-11-20T10:01:36;2.80;99.90
18506;DHT22;9382;53.242;10.438;2022-11-20T10:04:12;3.00;99.90
18506;DHT22;9382;53.242;10.438;2022-11-20T10:06:49;3.30;99.90
18506;DHT22;9382;53.242;10.438;2022-11-20T10:09:22;3.60;99.90
18506;DHT22;9382;53.242;10.438;2022-11-20T10:12:04;4.00;99.90
18506;DHT22;9382;53.242;10.438;2022-11-20T10:14:38;4.40;99.90
18506;DHT22;9382;53.242;10.438;2022-11-20T10:17:14;4.60;99.90
18506;DHT22;9382;53.242;10.438;2022-11-20T10:19:56;4.70;99.90
18506;DHT22;9382;53.242;10.438;2022-11-20T10:22:37;4.60;99.90
18506;DHT22;9382;53.242;10.438;2022-11-20T10:25:14;4.50;99.90
18506;DHT22;9382;53.242;10.438;2022-11-20T10:30:41;4.50;99.90
18506;DHT22;9382;53.242;10.438;2022-11-20T10:33:14;4.20;99.90
18506;DHT22;9382;53.242;10.438;2022-11-20T10:35:45;4.00;99.90
18506;DHT22;9382;53.242;10.438;2022-11-20T10:38:19;3.90;99.90
18506;DHT22;9382;53.242;10.438;2022-11-20T10:40:49;3.90;99.90
18506;DHT22;9382;53.242;10.438;2022-11-20T10:43:21;4.00;99.90
18506;DHT22;9382;53.242;10.438;2022-11-20T10:45:55;4.20;99.90
18506;DHT22;9382;53.242;10.438;2022-11-20T10:48:24;4.40;99.90
18506;DHT22;9382;53.242;10.438;2022-11-20T10:51:03;4.40;99.90
18506;DHT22;9382;53.242;10.438;2022-11-20T10:53:47;4.40;99.90
18506;DHT22;9382;53.242;10.438;2022-11-20T10:56:21;4.70;99.90
18506;DHT22;9382;53.242;10.438;2022-11-20T10:59:00;5.40;99.90
18506;DHT22;9382;53.242;10.438;2022-11-20T11:01:28;5.90;99.90
18506;DHT22;9382;53.242;10.438;2022-11-20T11:03:56;5.90;99.90
18506;DHT22;9382;53.242;10.438;2022-11-20T11:06:29;5.90;99.90
18506;DHT22;9382;53.242;10.438;2022-11-20T11:09:01;5.70;99.90
18506;DHT22;9382;53.242;10.438;2022-11-20T11:11:31;5.50;99.90
18506;DHT22;9382;53.242;10.438;2022-11-20T11:14:05;5.90;99.90
18506;DHT22;9382;53.242;10.438;2022-11-20T11:16:31;6.60;99.90
18506;DHT22;9382;53.242;10.438;2022-11-20T11:19:04;7.40;99.90
18506;DHT22;9382;53.242;10.438;2022-11-20T11:21:32;7.30;99.90
18506;DHT22;9382;53.242;10.438;2022-11-20T11:24:00;7.10;99.90
18506;DHT22;9382;53.242;10.438;2022-11-20T11:26:27;6.60;99.90
18506;DHT22;9382;53.242;10.438;2022-11-20T11:28:55;6.40;99.90
18506;DHT22;9382;53.242;10.438;2022-11-20T11:31:23;6.10;99.90
18506;DHT22;9382;53.242;10.438;2022-11-20T11:33:50;6.90;99.90
18506;DHT22;9382;53.242;10.438;2022-11-20T11:36:21;8.30;99.90
18506;DHT22;9382;53.242;10.438;2022-11-20T11:38:52;9.50;99.90
18506;DHT22;9382;53.242;10.438;2022-11-20T11:41:22;9.40;99.90
18506;DHT22;9382;53.242;10.438;2022-11-20T11:43:52;8.50;99.90
18506;DHT22;9382;53.242;10.438;2022-11-20T11:46:36;7.50;99.90
18506;DHT22;9382;53.242;10.438;2022-11-20T11:49:14;6.70;99.90
18506;DHT22;9382;53.242;10.438;2022-11-20T11:51:58;6.20;99.90
18506;DHT22;9382;53.242;10.438;2022-11-20T11:54:32;5.60;99.90
18506;DHT22;9382;53.242;10.438;2022-11-20T11:57:04;5.00;99.90
18506;DHT22;9382;53.242;10.438;2022-11-20T11:59:44;4.80;99.90
18506;DHT22;9382;53.242;10.438;2022-11-20T12:02:25;4.60;99.90
18506;DHT22;9382;53.242;10.438;2022-11-20T12:04:59;4.40;99.90
18506;DHT22;9382;53.242;10.438;2022-11-20T12:07:38;4.30;99.90
18506;DHT22;9382;53.242;10.438;2022-11-20T12:10:15;4.20;99.90
18506;DHT22;9382;53.242;10.438;2022-11-20T12:12:46;4.20;99.90
18506;DHT22;9382;53.242;10.438;2022-11-20T12:15:29;4.30;99.90
18506;DHT22;9382;53.242;10.438;2022-11-20T12:17:56;4.40;99.90
18506;DHT22;9382;53.242;10.438;2022-11-20T12:20:27;5.30;99.90
18506;DHT22;9382;53.242;10.438;2022-11-20T12:23:00;7.20;99.90
18506;DHT22;9382;53.242;10.438;2022-11-20T12:25:32;9.00;99.90
18506;DHT22;9382;53.242;10.438;2022-11-20T12:28:31;9.80;99.90
18506;DHT22;9382;53.242;10.438;2022-11-20T12:31:23;9.90;99.90
18506;DHT22;9382;53.242;10.438;2022-11-20T12:34:02;9.70;99.90
18506;DHT22;9382;53.242;10.438;2022-11-20T12:36:37;9.00;99.90
18506;DHT22;9382;53.242;10.438;2022-11-20T12:39:19;8.10;99.90
18506;DHT22;9382;53.242;10.438;2022-11-20T12:42:23;7.20;99.90
18506;DHT22;9382;53.242;10.438;2022-11-20T12:45:30;6.50;99.90
18506;DHT22;9382;53.242;10.438;2022-11-20T12:48:30;5.90;99.90
18506;DHT22;9382;53.242;10.438;2022-11-20T12:51:20;5.50;99.90
18506;DHT22;9382;53.242;10.438;2022-11-20T12:54:02;5.10;99.90
18506;DHT22;9382;53.242;10.438;2022-11-20T12:56:37;4.80;99.90
18506;DHT22;9382;53.242;10.438;2022-11-20T12:59:22;4.60;99.90
18506;DHT22;9382;53.242;10.438;2022-11-20T13:01:57;4.40;99.90
18506;DHT22;9382;53.242;10.438;2022-11-20T13:04:50;4.20;99.90
18506;DHT22;9382;53.242;10.438;2022-11-20T13:07:19;4.10;99.90
18506;DHT22;9382;53.242;10.438;2022-11-20T13:09:49;4.00;99.90
18506;DHT22;9382;53.242;10.438;2022-11-20T13:12:22;3.90;99.90
18506;DHT22;9382;53.242;10.438;2022-11-20T13:14:55;3.80;99.90
18506;DHT22;9382;53.242;10.438;2022-11-20T13:17:28;3.80;99.90
18506;DHT22;9382;53.242;10.438;2022-11-20T13:19:57;3.60;99.90
18506;DHT22;9382;53.242;10.438;2022-11-20T13:22:25;3.50;99.90
18506;DHT22;9382;53.242;10.438;2022-11-20T13:24:53;3.40;99.90
18506;DHT22;9382;53.242;10.438;2022-11-20T13:27:21;3.40;99.90
18506;DHT22;9382;53.242;10.438;2022-11-20T13:30:10;3.40;99.90
18506;DHT22;9382;53.242;10.438;2022-11-20T13:32:48;3.40;99.90
18506;DHT22;9382;53.242;10.438;2022-11-20T13:35:24;3.40;99.90
18506;DHT22;9382;53.242;10.438;2022-11-20T13:38:00;3.30;99.90
18506;DHT22;9382;53.242;10.438;2022-11-20T13:40:27;3.20;99.90
18506;DHT22;9382;53.242;10.438;2022-11-20T13:43:17;3.20;99.90
18506;DHT22;9382;53.242;10.438;2022-11-20T13:45:58;3.20;99.90
18506;DHT22;9382;53.242;10.438;2022-11-20T13:48:29;3.10;99.90
18506;DHT22;9382;53.242;10.438;2022-11-20T13:51:04;3.10;99.90
18506;DHT22;9382;53.242;10.438;2022-11-20T13:53:48;3.00;99.90
18506;DHT22;9382;53.242;10.438;2022-11-20T13:56:24;2.90;99.90
18506;DHT22;9382;53.242;10.438;2022-11-20T13:59:02;3.00;99.90
18506;DHT22;9382;53.242;10.438;2022-11-20T14:01:32;3.00;99.90
18506;DHT22;9382;53.242;10.438;2022-11-20T14:04:05;3.00;99.90
18506;DHT22;9382;53.242;10.438;2022-11-20T14:06:38;3.00;99.90
18506;DHT22;9382;53.242;10.438;2022-11-20T14:09:11;2.90;99.90
18506;DHT22;9382;53.242;10.438;2022-11-20T14:11:46;2.90;99.90
18506;DHT22;9382;53.242;10.438;2022-11-20T14:14:15;2.90;99.90
18506;DHT22;9382;53.242;10.438;2022-11-20T14:16:46;2.90;99.90
18506;DHT22;9382;53.242;10.438;2022-11-20T14:19:27;2.80;99.90
18506;DHT22;9382;53.242;10.438;2022-11-20T14:22:08;2.80;99.90
18506;DHT22;9382;53.242;10.438;2022-11-20T14:24:36;2.70;99.90
18506;DHT22;9382;53.242;10.438;2022-11-20T14:27:03;2.60;99.90
18506;DHT22;9382;53.242;10.438;2022-11-20T14:29:34;2.50;99.90
18506;DHT22;9382;53.242;10.438;2022-11-20T14:32:03;2.50;99.90
18506;DHT22;9382;53.242;10.438;2022-11-20T14:34:32;2.50;99.90
18506;DHT22;9382;53.242;10.438;2022-11-20T14:37:00;2.40;99.90
18506;DHT22;9382;53.242;10.438;2022-11-20T14:39:31;2.40;99.90
18506;DHT22;9382;53.242;10.438;2022-11-20T14:41:59;2.30;99.90
18506;DHT22;9382;53.242;10.438;2022-11-20T14:44:27;2.20;99.90
18506;DHT22;9382;53.242;10.438;2022-11-20T14:46:57;2.20;99.90
18506;DHT22;9382;53.242;10.438;2022-11-20T14:49:26;2.20;99.90
18506;DHT22;9382;53.242;10.438;2022-11-20T14:51:59;2.20;99.90
18506;DHT22;9382;53.242;10.438;2022-11-20T14:54:26;2.20;99.90
18506;DHT22;9382;53.242;10.438;2022-11-20T14:56:55;2.20;99.90
18506;DHT22;9382;53.242;10.438;2022-11-20T14:59:23;2.20;99.90
18506;DHT22;9382;53.242;10.438;2022-11-20T15:01:55;2.20;99.90
18506;DHT22;9382;53.242;10.438;2022-11-20T15:04:23;2.30;99.90
18506;DHT22;9382;53.242;10.438;2022-11-20T15:06:53;2.30;99.90
18506;DHT22;9382;53.242;10.438;2022-11-20T15:09:20;2.30;99.90
18506;DHT22;9382;53.242;10.438;2022-11-20T15:11:53;2.30;99.90
18506;DHT22;9382;53.242;10.438;2022-11-20T15:14:20;2.30;99.90
18506;DHT22;9382;53.242;10.438;2022-11-20T15:16:48;2.20;99.90
18506;DHT22;9382;53.242;10.438;2022-11-20T15:19:18;2.10;99.90
18506;DHT22;9382;53.242;10.438;2022-11-20T15:21:45;2.00;99.90
18506;DHT22;9382;53.242;10.438;2022-11-20T15:24:13;1.90;99.90
18506;DHT22;9382;53.242;10.438;2022-11-20T15:26:39;1.80;99.90
18506;DHT22;9382;53.242;10.438;2022-11-20T15:29:08;1.60;99.90
18506;DHT22;9382;53.242;10.438;2022-11-20T15:31:36;1.50;99.90
18506;DHT22;9382;53.242;10.438;2022-11-20T15:34:09;1.40;99.90
18506;DHT22;9382;53.242;10.438;2022-11-20T15:36:37;1.20;99.90
18506;DHT22;9382;53.242;10.438;2022-11-20T15:39:03;1.20;99.90
18506;DHT22;9382;53.242;10.438;2022-11-20T15:41:33;1.10;99.90
18506;DHT22;9382;53.242;10.438;2022-11-20T15:44:00;1.00;99.90
18506;DHT22;9382;53.242;10.438;2022-11-20T15:46:29;0.90;99.90
18506;DHT22;9382;53.242;10.438;2022-11-20T15:48:59;1.00;99.90
18506;DHT22;9382;53.242;10.438;2022-11-20T15:51:27;1.00;99.90
18506;DHT22;9382;53.242;10.438;2022-11-20T15:53:56;1.00;99.90
18506;DHT22;9382;53.242;10.438;2022-11-20T15:56:23;0.90;99.90
18506;DHT22;9382;53.242;10.438;2022-11-20T15:58:51;1.00;99.90
18506;DHT22;9382;53.242;10.438;2022-11-20T16:01:20;1.00;99.90
18506;DHT22;9382;53.242;10.438;2022-11-20T16:03:47;1.00;99.90
18506;DHT22;9382;53.242;10.438;2022-11-20T16:06:14;1.10;99.90